CheckWX is a tool to help pilots better visualize weather data.  It is not intended as a substitute for an official pre-flight weather briefing.

08:39:46 UTC

LIRU METAR
Urbe Airport
Roma, Italy
Current

50 mins ago

LIRU 120750Z VRB03KT 8000 NSC 04/02 Q1006
Observed
Dec-12 @ 07:50 UTC
Wind
  • Variable at 3 KTS
Visibility
8,000 meters
Flight Rules
MVFR
Cloud Levels
  • Clear skies
Temperature
C / 39°F
Dewpoint
C / 36°F
Humidity
87%
Altimeter
29.7" Hg
Pressure
1005.92 hPa
Previous

2 hours ago

LIRU 120650Z 01005KT 8000 FEW040 03/01 Q1005
Observed
Dec-12 @ 06:50 UTC
Wind
  • 010° at 5 KTS
Visibility
8,000 meters
Flight Rules
MVFR
Cloud Levels
  • Few at 4,000' AGL
Temperature
C / 37°F
Dewpoint
C / 34°F
Humidity
87%
Altimeter
29.68" Hg
Pressure
1004.92 hPa
Previous

17 hours ago

LIRU 111550Z 01004KT CAVOK 09/01 Q1010
Observed
Dec-11 @ 15:50 UTC
Wind
  • 010° at 4 KTS
Visibility
10,000+ meters
Flight Rules
VFR
Cloud Levels
  • Clear skies
Temperature
C / 48°F
Dewpoint
C / 34°F
Humidity
58%
Altimeter
29.82" Hg
Pressure
1009.92 hPa